Los Angeles, CA (90046)

1:15 PM PST on February 28, 2015 (GMT -0800)
Laurel Canyon - Kirkwood Bowl | Change Station
CLOSE
Current Station
Personal Weather Station
Location: Los Angeles, CA
Elevation: 876 ft
Nearby Weather Stations

Elev 876 ft 34.11 °N, 118.37 °W | Updated 3 minutes ago

Overcast
Overcast
58.9 °F
Feels Like 58.9 °F
N
0.0
Wind Variable Wind from North
Gusts 3.0 mph

Today
High -- | Low -- °F
--% Chance of Precip.
Yesterday
High -- | Low -- °F
Precip. -- in
6:23 AM 5:48 PM
Waxing Gibbous, 80% visible
Pressure 29.80 in
Visibility 10.0 miles
Clouds Few 2200 ft
Mostly Cloudy 7000 ft
Mostly Cloudy 8000 ft
Dew Point 48 °F
Humidity 68%
Rainfall 0.00 in
Snow Depth Not available.
UV 4 out of 12
Pollen 8.50 out of 12
Air Quality Not available.
Flu Activity Not available.
METAR KBUR 282053Z 20011KT 10SM -RA FEW022 BKN070 BKN080 15/04 A2983 RMK AO2 RAB48 SLP091 P0000 60000 T01500044 58007

More Conditions Fewer Conditions

Pressure 29.80 in
Visibility 10.0 miles
Clouds Few 2200 ft
Mostly Cloudy 7000 ft
Mostly Cloudy 8000 ft
Dew Point 48 °F
Humidity 68%
Rainfall 0.00 in
Snow Depth Not available.
UV 4 out of 12
Pollen 8.50 out of 12
Air Quality Not available.
Flu Activity Not available.
METAR KBUR 282053Z 20011KT 10SM -RA FEW022 BKN070 BKN080 15/04 A2983 RMK AO2 RAB48 SLP091 P0000 60000 T01500044 58007

More Conditions Fewer Conditions

10-Day Weather Forecast

Almanac

Astronomy

Feb. 28, 2015 Rise Set
Actual Time
Civil Twilight
Nautical Twilight
Astronomical Twilight
Moon
Length of Visible Light
Length of Day
Tomorrow will be .
, % of the Moon is Illuminated

Today's Extremes

State Highs State Lows

Community

WunderPhotos

Upload Photos

1,801,150 photos uploaded!

WunderBlogs® & News

Nearby

Air Quality

  Air Quality AQ Index Pollutant
Not available.

Snow Depth

Station Depth Elevation

Earthquake Activity

City Distance Mag. Time & Date
Minimum magnitude displayed is 2.5.

Coastal Water Temperatures

Place Temperature

Nearby Weather Stations